Time;durP1;ratioP1;P1;durP2;ratioP2;P2;SDS_P1;SDS_P2;PMS_P1;PMS_P2;Temp;Humidity;BMP_temperature;BMP_pressure;BME280_temperature;BME280_humidity;BME280_pressure;Samples;Min_cycle;Max_cycle;Signal;HPM_P1;HPM_P2
2022/12/24 00:02:06;;;;;;;16.77;4.75;;;;;;;9.38;100.00;100542.66;5051900;28;20033;-74
2022/12/24 00:04:32;;;;;;;18.30;4.63;;;;;;;9.29;100.00;100541.16;5051592;28;20029;-74
2022/12/24 00:06:57;;;;;;;19.27;4.78;;;;;;;9.23;100.00;100541.94;5051802;28;20120;-74
2022/12/24 00:09:22;;;;;;;17.50;4.50;;;;;;;9.23;100.00;100557.91;5051799;28;20926;-74
2022/12/24 00:11:48;;;;;;;21.38;4.43;;;;;;;9.21;100.00;100558.09;5017312;28;20724;-74
2022/12/24 00:14:13;;;;;;;14.80;3.60;;;;;;;9.22;100.00;100569.56;5051043;28;20032;-74
2022/12/24 00:16:38;;;;;;;18.00;4.68;;;;;;;9.18;100.00;100570.97;5050516;28;20125;-74
2022/12/24 00:19:04;;;;;;;25.70;5.30;;;;;;;9.14;100.00;100565.25;5032868;28;20041;-74
2022/12/24 00:21:29;;;;;;;19.95;3.45;;;;;;;9.05;100.00;100558.41;5032972;28;20562;-74
2022/12/24 00:23:56;;;;;;;21.30;5.90;;;;;;;9.09;100.00;100570.31;5015879;28;20036;-74
2022/12/24 00:26:21;;;;;;;30.10;7.32;;;;;;;9.03;100.00;100573.72;5032563;28;20142;-74
2022/12/24 00:28:46;;;;;;;37.80;9.18;;;;;;;9.07;100.00;100582.16;5050454;28;20480;-74
2022/12/24 00:31:17;;;;;;;22.30;4.47;;;;;;;9.09;100.00;100577.44;5032626;28;20129;-74
2022/12/24 00:33:44;;;;;;;15.38;5.93;;;;;;;9.09;100.00;100590.75;5032659;28;20032;-74
2022/12/24 00:36:10;;;;;;;22.70;6.90;;;;;;;9.05;100.00;100585.00;5050518;28;20403;-74
2022/12/24 00:38:36;;;;;;;20.85;6.57;;;;;;;9.00;100.00;100580.25;5033139;28;20110;-74
2022/12/24 00:41:04;;;;;;;21.27;6.22;;;;;;;9.03;100.00;100589.69;5050993;28;20146;-74
2022/12/24 00:43:29;;;;;;;26.85;6.40;;;;;;;9.09;100.00;100601.41;5050925;28;20060;-74
2022/12/24 00:45:56;;;;;;;21.45;5.20;;;;;;;9.13;100.00;100600.81;5051121;28;20021;-74
2022/12/24 00:48:22;;;;;;;29.65;9.00;;;;;;;9.13;100.00;100603.47;5032904;28;20456;-74
2022/12/24 00:50:48;;;;;;;22.38;5.20;;;;;;;9.13;100.00;100614.13;5032986;28;20032;-74
2022/12/24 00:53:14;;;;;;;19.60;5.97;;;;;;;9.17;100.00;100614.59;5050874;28;20033;-74
2022/12/24 00:55:40;;;;;;;23.73;4.63;;;;;;;9.17;100.00;100612.75;5050762;28;20026;-74
2022/12/24 00:58:05;;;;;;;27.60;5.53;;;;;;;9.23;100.00;100623.63;5016408;28;20467;-74
2022/12/24 01:00:31;;;;;;;22.17;5.80;;;;;;;9.12;100.00;100609.00;5050799;28;20045;-74
2022/12/24 01:02:56;;;;;;;18.27;5.22;;;;;;;9.16;100.00;100634.22;5032892;28;20025;-74
2022/12/24 01:05:22;;;;;;;26.23;7.15;;;;;;;9.17;100.00;100642.00;5032664;28;20557;-74
2022/12/24 01:07:47;;;;;;;26.95;4.80;;;;;;;9.12;100.00;100636.44;5032810;28;20119;-74
2022/12/24 01:10:17;;;;;;;29.67;7.25;;;;;;;9.11;100.00;100631.28;5050635;28;20040;-74
2022/12/24 01:12:43;;;;;;;20.23;4.10;;;;;;;9.14;100.00;100641.56;5050559;28;20380;-74
2022/12/24 01:15:10;;;;;;;27.15;6.53;;;;;;;9.14;100.00;100645.06;5050408;28;20095;-74
2022/12/24 01:17:36;;;;;;;18.75;5.63;;;;;;;9.14;100.00;100641.56;5050387;28;20032;-74
2022/12/24 01:20:04;;;;;;;18.88;5.80;;;;;;;9.16;100.00;100652.81;5050478;28;20542;-74
2022/12/24 01:22:29;;;;;;;22.17;5.60;;;;;;;9.18;100.00;100654.28;5015561;28;20437;-74
2022/12/24 01:24:54;;;;;;;24.08;5.53;;;;;;;9.20;100.00;100657.59;5049765;28;20060;-74
2022/12/24 01:27:20;;;;;;;24.00;5.68;;;;;;;9.17;100.00;100652.66;5050197;28;20029;-74
2022/12/24 01:29:45;;;;;;;23.75;6.40;;;;;;;9.12;100.00;100664.88;5050223;28;20033;-74
2022/12/24 01:32:10;;;;;;;20.70;5.13;;;;;;;9.08;100.00;100666.28;5050181;28;20079;-74
2022/12/24 01:34:36;;;;;;;19.85;6.45;;;;;;;9.05;100.00;100674.63;5049951;28;20036;-74
2022/12/24 01:37:01;;;;;;;21.48;6.68;;;;;;;9.00;100.00;100668.03;5050136;28;20399;-74
2022/12/24 01:39:27;;;;;;;18.15;4.55;;;;;;;9.05;100.00;100686.09;5050033;28;20060;-74
2022/12/24 01:44:42;;;;;;;24.55;5.68;;;;;;;8.94;100.00;100690.09;5049627;28;20047;-74
2022/12/24 01:47:20;;;;;;;23.00;5.53;;;;;;;8.90;100.00;100688.00;5049967;28;20059;-74
2022/12/24 01:49:55;;;;;;;15.98;4.47;;;;;;;8.83;100.00;100679.13;5049925;28;20383;-74
2022/12/24 01:52:24;;;;;;;22.65;6.13;;;;;;;8.79;100.00;100684.00;5049947;28;20056;-74
2022/12/24 01:54:54;;;;;;;25.92;6.40;;;;;;;8.76;100.00;100682.53;5049344;28;20032;-74
2022/12/24 01:57:25;;;;;;;16.88;5.38;;;;;;;8.70;100.00;100680.66;5049832;28;20440;-74
2022/12/24 01:59:56;;;;;;;26.00;7.82;;;;;;;8.69;100.00;100694.94;5031496;28;20037;-74
2022/12/24 02:02:22;;;;;;;20.40;5.05;;;;;;;8.64;100.00;100701.84;5049147;28;20544;-74
2022/12/24 02:05:15;;;;;;;17.73;5.07;;;;;;;8.53;100.00;100700.50;5049685;28;20144;-74
2022/12/24 02:07:41;;;;;;;19.17;5.80;;;;;;;8.50;100.00;100706.19;5031718;28;20036;-74
2022/12/24 02:10:09;;;;;;;26.85;5.57;;;;;;;8.54;100.00;100710.09;5049640;28;20040;-74
2022/12/24 02:12:36;;;;;;;21.13;5.97;;;;;;;8.56;100.00;100719.53;5049591;28;20434;-74
2022/12/24 02:15:03;;;;;;;24.92;7.88;;;;;;;8.59;100.00;100717.50;5048660;28;20033;-74
2022/12/24 02:17:52;;;;;;;19.98;5.68;;;;;;;8.64;100.00;100717.78;5048689;28;20498;-74
2022/12/24 02:20:27;;;;;;;26.83;6.45;;;;;;;8.67;100.00;100720.91;5048702;28;20029;-74
2022/12/24 02:23:01;;;;;;;19.70;6.50;;;;;;;8.71;100.00;100722.16;5049102;28;20086;-74
2022/12/24 02:25:43;;;;;;;31.35;6.68;;;;;;;8.77;100.00;100728.56;5048788;28;20490;-74
2022/12/24 02:28:27;;;;;;;;;;;;;;;8.81;100.00;100724.53;5049140;28;20102;-74
2022/12/24 02:31:00;;;;;;;21.67;5.80;;;;;;;8.81;100.00;100718.41;5048707;28;20015;-74
2022/12/24 02:33:42;;;;;;;23.85;4.70;;;;;;;8.88;100.00;100727.25;5048618;28;20518;-74
2022/12/24 02:36:17;;;;;;;24.70;6.05;;;;;;;8.90;100.00;100730.53;5048532;28;20090;-74
2022/12/24 02:38:48;;;;;;;24.35;5.53;;;;;;;8.94;100.00;100734.50;5048552;28;20081;-74
2022/12/24 02:41:23;;;;;;;29.00;7.85;;;;;;;8.95;100.00;100731.63;5048617;28;20037;-74
2022/12/24 02:43:51;;;;;;;25.13;7.03;;;;;;;8.97;100.00;100731.44;5048984;28;20566;-74
2022/12/24 02:46:23;;;;;;;23.83;5.57;;;;;;;8.96;100.00;100729.78;5049374;28;20024;-74
2022/12/24 02:48:49;;;;;;;22.48;6.65;;;;;;;9.02;100.00;100736.22;5048953;28;20372;-74
2022/12/24 02:51:15;;;;;;;20.60;5.20;;;;;;;9.04;100.00;100740.31;5022602;28;20040;-74
2022/12/24 02:53:41;;;;;;;23.73;4.97;;;;;;;9.02;100.00;100737.03;5031218;28;20025;-74
2022/12/24 02:56:25;;;;;;;28.05;6.07;;;;;;;9.06;100.00;100732.97;5049123;28;20052;-74
2022/12/24 02:59:03;;;;;;;17.40;5.20;;;;;;;9.07;100.00;100745.25;5049188;28;20029;-74
2022/12/24 03:01:50;;;;;;;26.70;4.75;;;;;;;9.06;100.00;100743.59;5049195;28;20028;-74
2022/12/24 03:04:38;;;;;;;21.80;7.68;;;;;;;9.02;100.00;100741.53;5031166;28;20060;-74
2022/12/24 03:07:14;;;;;;;19.27;4.47;;;;;;;8.98;100.00;100751.69;5049144;28;20032;-74
2022/12/24 03:09:54;;;;;;;18.85;5.57;;;;;;;8.98;100.00;100746.38;5049105;28;20056;-74
2022/12/24 03:12:27;;;;;;;13.57;4.30;;;;;;;8.95;100.00;100746.75;5032704;28;20156;-74
2022/12/24 03:14:52;;;;;;;31.08;5.70;;;;;;;8.93;100.00;100732.81;5052715;28;20827;-74
2022/12/24 03:17:18;;;;;;;18.23;4.60;;;;;;;8.97;100.00;100747.41;5018142;28;20033;-74
2022/12/24 03:19:45;;;;;;;22.38;5.50;;;;;;;8.95;100.00;100744.09;5018251;28;20730;-74
2022/12/24 03:22:12;;;;;;;22.92;4.65;;;;;;;8.95;100.00;100749.44;5034013;28;20036;-74
2022/12/24 03:24:37;;;;;;;20.52;3.80;;;;;;;8.94;100.00;100745.94;5033708;28;20039;-74
2022/12/24 03:27:08;;;;;;;22.27;5.05;;;;;;;8.95;100.00;100750.25;5033964;28;20025;-74
2022/12/24 03:29:34;;;;;;;26.43;5.77;;;;;;;9.02;100.00;100752.16;5051979;28;20025;-74
2022/12/24 03:32:02;;;;;;;17.08;5.50;;;;;;;9.02;100.00;100742.34;5051530;28;20310;-74
2022/12/24 03:34:27;;;;;;;24.90;5.05;;;;;;;9.08;100.00;100752.22;5051412;28;20434;-74
2022/12/24 03:36:53;;;;;;;22.15;4.15;;;;;;;9.06;100.00;100756.09;5051567;28;20096;-74
2022/12/24 03:39:18;;;;;;;25.05;4.32;;;;;;;9.09;100.00;100751.22;5033437;28;20072;-74
2022/12/24 03:41:44;;;;;;;28.65;8.20;;;;;;;9.05;100.00;100762.44;5051397;28;20045;-74
2022/12/24 03:44:09;;;;;;;20.80;4.90;;;;;;;9.03;100.00;100759.13;5016964;28;20056;-74
2022/12/24 03:46:34;;;;;;;17.83;5.93;;;;;;;9.04;100.00;100766.09;5051816;28;20033;-74
2022/12/24 03:49:00;;;;;;;16.17;4.97;;;;;;;9.06;100.00;100756.09;5049197;28;20550;-74
2022/12/24 03:51:25;;;;;;;25.00;7.60;;;;;;;9.09;100.00;100758.34;5033993;28;20040;-74
2022/12/24 03:53:52;;;;;;;28.88;6.60;;;;;;;9.06;100.00;100761.41;5033797;28;20025;-74
2022/12/24 03:56:19;;;;;;;32.95;7.40;;;;;;;9.07;100.00;100771.88;5033572;28;20037;-74
2022/12/24 03:58:44;;;;;;;21.10;6.03;;;;;;;9.06;100.00;100762.22;5050016;28;20040;-74
2022/12/24 04:01:10;;;;;;;18.88;5.47;;;;;;;9.09;100.00;100776.97;5051394;28;20029;-74
2022/12/24 04:03:35;;;;;;;31.13;5.55;;;;;;;9.10;100.00;100779.47;5051237;28;20044;-74
2022/12/24 04:06:07;;;;;;;22.67;4.50;;;;;;;9.12;100.00;100772.13;5044954;28;20053;-73
2022/12/24 04:08:33;;;;;;;21.58;5.47;;;;;;;9.14;100.00;100775.44;5051442;28;20142;-74
2022/12/24 04:10:59;;;;;;;20.65;4.93;;;;;;;9.13;100.00;100767.63;5051759;28;20087;-74
2022/12/24 04:13:24;;;;;;;20.92;4.30;;;;;;;9.13;100.00;100757.81;5051196;28;20021;-74
2022/12/24 04:16:01;;;;;;;25.27;8.30;;;;;;;9.21;100.00;100770.16;5051184;28;20033;-74
2022/12/24 04:18:27;;;;;;;23.02;6.18;;;;;;;9.24;100.00;100784.94;5051312;28;20094;-74
2022/12/24 04:20:53;;;;;;;19.98;5.90;;;;;;;9.27;100.00;100793.34;5009364;28;20502;-74
2022/12/24 04:23:19;;;;;;;16.77;5.07;;;;;;;9.31;100.00;100793.81;5050283;28;20105;-74
2022/12/24 04:25:44;;;;;;;25.17;6.82;;;;;;;9.21;100.00;100760.34;5033678;28;20486;-74
2022/12/24 04:28:10;;;;;;;24.42;5.60;;;;;;;9.34;100.00;100788.09;5050812;28;20033;-73
2022/12/24 04:30:37;;;;;;;18.40;6.05;;;;;;;9.32;100.00;100785.63;5050862;28;20029;-74
2022/12/24 04:33:02;;;;;;;13.75;4.10;;;;;;;9.36;100.00;100783.41;5050948;28;20082;-74
2022/12/24 04:35:28;;;;;;;19.30;5.07;;;;;;;9.36;100.00;100786.06;5049361;28;20033;-74
2022/12/24 04:37:53;;;;;;;25.58;5.70;;;;;;;9.37;100.00;100796.50;5008381;28;20032;-74
2022/12/24 04:40:18;;;;;;;21.67;5.50;;;;;;;9.36;100.00;100797.53;5051254;28;20039;-74
2022/12/24 04:42:44;;;;;;;17.73;5.75;;;;;;;9.37;100.00;100806.34;5032863;28;21078;-74
2022/12/24 04:45:09;;;;;;;23.10;6.63;;;;;;;9.37;100.00;100806.34;5051062;28;20043;-74
2022/12/24 04:47:35;;;;;;;20.35;8.00;;;;;;;9.36;100.00;100808.19;5051032;28;20043;-74
2022/12/24 04:50:00;;;;;;;24.77;5.45;;;;;;;9.34;100.00;100802.22;5016748;28;20557;-74
2022/12/24 04:52:26;;;;;;;26.52;5.53;;;;;;;9.39;100.00;100815.78;5050842;28;20068;-74
2022/12/24 04:54:51;;;;;;;18.67;5.60;;;;;;;9.40;100.00;100813.94;5032946;28;20120;-74
2022/12/24 04:57:17;;;;;;;19.00;5.82;;;;;;;9.35;100.00;100806.56;5050753;28;20108;-74
2022/12/24 04:59:42;;;;;;;16.58;4.88;;;;;;;9.34;100.00;100804.06;5016049;28;20120;-74
2022/12/24 05:02:07;;;;;;;22.65;7.18;;;;;;;9.28;100.00;100805.66;5050650;28;20475;-74
2022/12/24 05:04:33;;;;;;;20.58;4.90;;;;;;;9.22;100.00;100809.06;5032741;28;20085;-74
2022/12/24 05:06:58;;;;;;;19.73;4.30;;;;;;;9.18;100.00;100805.13;5016212;28;20413;-74
2022/12/24 05:09:24;;;;;;;19.95;6.35;;;;;;;9.17;100.00;100816.81;5042456;28;20400;-74
2022/12/24 05:11:49;;;;;;;17.75;5.13;;;;;;;9.10;100.00;100822.03;5032804;28;20075;-74
2022/12/24 05:14:14;;;;;;;33.33;5.85;;;;;;;9.09;100.00;100823.06;5032179;28;20029;-74
2022/12/24 05:16:40;;;;;;;35.08;6.50;;;;;;;9.06;100.00;100818.09;5031705;28;20082;-74
2022/12/24 05:19:05;;;;;;;15.93;5.55;;;;;;;9.10;100.00;100819.38;5043548;28;20120;-74
2022/12/24 05:21:30;;;;;;;21.08;5.32;;;;;;;9.14;100.00;100823.31;5031396;28;20480;-74
2022/12/24 05:26:52;;;;;;;16.02;5.45;;;;;;;9.20;100.00;100821.75;5049900;28;20095;-74
2022/12/24 05:29:17;;;;;;;21.30;4.20;;;;;;;9.18;100.00;100808.63;5031664;28;20024;-74
2022/12/24 05:31:44;;;;;;;25.35;6.18;;;;;;;9.21;100.00;100813.56;4999128;28;20383;-74
2022/12/24 05:34:10;;;;;;;23.00;5.80;;;;;;;9.25;100.00;100813.16;5049653;28;20591;-74
2022/12/24 05:36:36;;;;;;;19.95;5.93;;;;;;;9.23;100.00;100815.22;5049456;28;20116;-74
2022/12/24 05:39:01;;;;;;;20.80;5.00;;;;;;;9.15;100.00;100805.50;5049564;28;20128;-74
2022/12/24 05:41:27;;;;;;;17.63;5.32;;;;;;;9.11;100.00;100809.56;5049911;28;20025;-75
2022/12/24 05:43:52;;;;;;;22.33;4.82;;;;;;;9.11;100.00;100818.34;5053813;28;20525;-74
2022/12/24 05:46:20;;;;;;;17.80;4.25;;;;;;;9.08;100.00;100818.72;5051416;28;20036;-74
2022/12/24 05:48:46;;;;;;;23.50;5.28;;;;;;;9.10;100.00;100831.84;5069496;28;20521;-74
2022/12/24 05:51:13;;;;;;;20.55;4.47;;;;;;;9.04;100.00;100819.28;5051325;28;20070;-74
2022/12/24 05:53:39;;;;;;;22.02;5.20;;;;;;;9.06;100.00;100830.56;5060890;28;20548;-74
2022/12/24 05:56:10;;;;;;;13.68;3.80;;;;;;;8.98;100.00;100815.53;5051395;28;20036;-74
2022/12/24 05:58:36;;;;;;;19.40;6.67;;;;;;;8.94;100.00;100836.38;5054463;28;20538;-74
2022/12/24 06:01:03;;;;;;;15.70;3.53;;;;;;;8.94;100.00;100849.69;5069205;28;20676;-74
2022/12/24 06:03:29;;;;;;;25.98;5.45;;;;;;;9.00;100.00;100862.22;5060340;28;20040;-80
2022/12/24 06:06:00;;;;;;;29.83;5.55;;;;;;;9.04;100.00;100854.72;5050051;28;20029;-80
2022/12/24 06:08:26;;;;;;;26.13;4.50;;;;;;;9.04;100.00;100854.72;5058730;28;20036;-79
2022/12/24 06:10:59;;;;;;;19.67;7.45;;;;;;;9.05;100.00;100853.69;5051701;28;20025;-79
2022/12/24 06:13:25;;;;;;;20.63;5.60;;;;;;;8.98;100.00;100853.59;5053021;28;20037;-80
2022/12/24 06:15:54;;;;;;;17.15;4.85;;;;;;;8.98;100.00;100858.09;5060152;28;20036;-80
2022/12/24 06:18:19;;;;;;;21.45;5.88;;;;;;;9.05;100.00;100868.84;5051956;28;20021;-80
2022/12/24 06:20:45;;;;;;;17.75;6.28;;;;;;;9.05;100.00;100864.34;5053724;28;20588;-80
2022/12/24 06:23:10;;;;;;;19.63;4.30;;;;;;;9.06;100.00;100873.13;5053136;28;20535;-80
2022/12/24 06:25:36;;;;;;;22.10;5.53;;;;;;;9.05;100.00;100859.03;5054155;28;20033;-80
2022/12/24 06:28:01;;;;;;;22.45;5.70;;;;;;;9.05;100.00;100864.34;5055190;28;20120;-80
2022/12/24 06:30:26;;;;;;;20.80;4.88;;;;;;;9.03;100.00;100855.72;5050370;28;20032;-80
2022/12/24 06:32:52;;;;;;;21.17;5.60;;;;;;;9.10;100.00;100863.78;5039626;28;20028;-80
2022/12/24 06:35:17;;;;;;;17.92;5.25;;;;;;;9.08;100.00;100871.94;5042298;28;20472;-80
2022/12/24 06:37:42;;;;;;;27.20;6.38;;;;;;;9.11;100.00;100868.09;5040046;28;20388;-79
2022/12/24 06:40:08;;;;;;;24.65;5.70;;;;;;;9.10;100.00;100871.75;5056460;28;20069;-80
2022/12/24 06:42:34;;;;;;;13.98;4.57;;;;;;;9.14;100.00;100886.34;5023810;28;20036;-79
2022/12/24 06:44:59;;;;;;;20.58;4.70;;;;;;;9.12;100.00;100891.84;5052929;28;20047;-79
2022/12/24 06:47:24;;;;;;;16.23;6.28;;;;;;;9.12;100.00;100899.03;5055348;28;20036;-79
2022/12/24 06:49:50;;;;;;;23.38;5.43;;;;;;;9.14;100.00;100910.28;5043167;28;20052;-80
2022/12/24 06:52:15;;;;;;;24.75;7.90;;;;;;;9.14;100.00;100895.16;5053633;28;20431;-81
2022/12/24 06:54:40;;;;;;;26.73;7.07;;;;;;;9.14;100.00;100896.97;5064243;28;20427;-80
2022/12/24 06:57:06;;;;;;;20.08;4.95;;;;;;;9.19;100.00;100899.91;5058991;28;20021;-80
2022/12/24 06:59:31;;;;;;;21.20;5.35;;;;;;;9.19;100.00;100906.03;5041135;28;20063;-80
2022/12/24 07:01:56;;;;;;;28.30;6.03;;;;;;;9.18;100.00;100896.44;5040581;28;20033;-80
2022/12/24 07:04:22;;;;;;;16.45;4.88;;;;;;;9.18;100.00;100903.59;5043739;28;20037;-80
2022/12/24 07:06:47;;;;;;;17.52;5.57;;;;;;;9.16;100.00;100900.28;5057702;28;20024;-80
2022/12/24 07:09:13;;;;;;;19.98;4.40;;;;;;;9.15;100.00;100912.78;5057947;28;20028;-80
2022/12/24 07:11:38;;;;;;;21.83;5.35;;;;;;;9.11;100.00;100908.81;5053129;28;20029;-80
2022/12/24 07:14:04;;;;;;;36.25;7.70;;;;;;;9.03;100.00;100900.94;5057940;28;20036;-80
2022/12/24 07:16:29;;;;;;;21.77;5.57;;;;;;;9.02;100.00;100907.28;5053957;28;20037;-79
2022/12/24 07:18:55;;;;;;;20.92;5.28;;;;;;;8.90;100.00;100906.09;5052533;28;20032;-80
2022/12/24 07:21:20;;;;;;;17.40;5.05;;;;;;;8.93;100.00;100916.34;5056927;28;20020;-80
2022/12/24 07:23:45;;;;;;;23.35;4.80;;;;;;;8.93;100.00;100913.69;5045910;28;20024;-80
2022/12/24 07:26:11;;;;;;;15.57;5.75;;;;;;;8.89;100.00;100915.09;5027720;28;20033;-80
2022/12/24 07:28:36;;;;;;;15.13;5.18;;;;;;;8.85;100.00;100913.78;5055609;28;20151;-79
2022/12/24 07:31:02;;;;;;;19.15;5.47;;;;;;;8.78;100.00;100919.84;5052121;28;20093;-79
2022/12/24 07:33:28;;;;;;;25.95;7.35;;;;;;;8.72;100.00;100919.75;5052299;28;20029;-79
2022/12/24 07:36:04;;;;;;;23.33;6.80;;;;;;;8.66;100.00;100934.59;5055551;28;20044;-79
2022/12/24 07:38:30;;;;;;;24.30;6.82;;;;;;;8.61;100.00;100942.28;5057007;28;20032;-80
2022/12/24 07:40:56;;;;;;;25.67;6.75;;;;;;;8.60;100.00;100940.66;5064723;28;20628;-80
2022/12/24 07:43:22;;;;;;;31.70;7.63;;;;;;;8.56;100.00;100942.00;5044014;28;20057;-80
2022/12/24 07:45:48;;;;;;;24.25;6.63;;;;;;;8.50;100.00;100945.41;5042297;28;20021;-80
2022/12/24 07:48:14;;;;;;;21.90;5.90;;;;;;;8.49;100.00;100957.06;5052467;28;20380;-80
2022/12/24 07:50:39;;;;;;;23.35;6.72;;;;;;;8.48;100.00;100958.84;5057660;28;20040;-79
2022/12/24 07:53:04;;;;;;;23.05;5.38;;;;;;;8.45;100.00;100958.41;5052362;28;20036;-80
2022/12/24 07:55:30;;;;;;;19.75;5.50;;;;;;;8.42;100.00;100959.59;5044070;28;20039;-79
2022/12/24 07:57:55;;;;;;;32.05;6.55;;;;;;;8.34;100.00;100952.47;5054558;28;20060;-79
2022/12/24 08:00:20;;;;;;;24.08;6.85;;;;;;;8.35;100.00;100967.41;5061820;28;20063;-79
2022/12/24 08:02:46;;;;;;;18.35;5.95;;;;;;;8.33;100.00;100974.75;5041209;28;20040;-79
2022/12/24 08:05:11;;;;;;;16.33;5.13;;;;;;;8.30;100.00;100975.09;5042171;28;20519;-79
2022/12/24 08:07:36;;;;;;;21.50;5.75;;;;;;;8.33;100.00;100987.19;5058094;28;20490;-80
2022/12/24 08:10:02;;;;;;;22.10;5.88;;;;;;;8.34;100.00;100997.66;5057979;28;20020;-82
2022/12/24 08:12:28;;;;;;;23.63;6.28;;;;;;;8.35;100.00;101007.25;5041138;28;20041;-80
2022/12/24 08:14:53;;;;;;;25.65;7.15;;;;;;;8.35;100.00;101006.44;5056196;28;20029;-79
2022/12/24 08:17:18;;;;;;;26.23;7.25;;;;;;;8.35;100.00;101014.41;5057274;28;20033;-83
2022/12/24 08:19:44;;;;;;;18.27;6.05;;;;;;;8.33;100.00;101006.66;5057097;28;20503;-83
2022/12/24 08:22:09;;;;;;;22.23;5.95;;;;;;;8.38;100.00;101026.53;5056051;28;20392;-79
2022/12/24 08:24:36;;;;;;;17.42;5.90;;;;;;;8.41;100.00;101027.06;5055680;28;20032;-83
2022/12/24 08:27:01;;;;;;;28.00;8.13;;;;;;;8.44;100.00;101033.84;5042725;28;20029;-83
2022/12/24 08:29:27;;;;;;;38.55;7.45;;;;;;;8.43;100.00;101032.16;5060168;28;20630;-83
2022/12/24 08:31:52;;;;;;;25.83;7.03;;;;;;;8.39;100.00;101034.38;5049453;28;20028;-83
2022/12/24 08:34:18;;;;;;;25.25;8.30;;;;;;;8.42;100.00;101038.50;5058619;28;20033;-83
2022/12/24 08:36:43;;;;;;;21.83;6.43;;;;;;;8.43;100.00;101034.81;5058716;28;20064;-83
2022/12/24 08:39:08;;;;;;;17.90;5.25;;;;;;;8.45;100.00;101041.63;5055392;28;20035;-83
2022/12/24 08:41:34;;;;;;;22.15;5.60;;;;;;;8.47;100.00;101033.47;5060820;28;20093;-83
2022/12/24 08:43:59;;;;;;;23.65;5.82;;;;;;;8.51;100.00;101032.09;5044569;28;20067;-82
2022/12/24 08:46:25;;;;;;;31.90;5.80;;;;;;;8.51;100.00;101034.75;5058315;28;20075;-84
2022/12/24 08:48:50;;;;;;;22.02;6.68;;;;;;;8.58;100.00;101042.84;5056723;28;20035;-83
2022/12/24 08:51:17;;;;;;;21.10;6.72;;;;;;;8.62;100.00;101039.66;5052399;28;21042;-82
2022/12/24 08:53:43;;;;;;;22.02;5.78;;;;;;;8.65;100.00;101043.81;5061902;28;20039;-82
2022/12/24 08:56:10;;;;;;;18.88;4.95;;;;;;;8.66;100.00;101059.56;5043063;28;20123;-82
2022/12/24 08:58:36;;;;;;;25.13;5.75;;;;;;;8.69;100.00;101067.19;5042377;28;20025;-81
2022/12/24 09:01:09;;;;;;;21.05;4.85;;;;;;;8.64;100.00;101048.28;5055397;28;20025;-82
2022/12/24 09:03:35;;;;;;;25.80;5.35;;;;;;;8.74;100.00;101064.81;5055733;28;20535;-82
2022/12/24 09:06:03;;;;;;;22.88;7.30;;;;;;;8.80;100.00;101073.06;5057500;28;20040;-82
2022/12/24 09:08:29;;;;;;;23.92;6.13;;;;;;;8.82;100.00;101065.75;5053346;28;20021;-82
2022/12/24 09:10:54;;;;;;;21.85;5.50;;;;;;;8.88;100.00;101073.00;5061277;28;21010;-82
2022/12/24 09:13:19;;;;;;;21.48;5.13;;;;;;;8.98;100.00;101070.91;5053749;28;20111;-81
2022/12/24 09:15:54;;;;;;;23.50;5.07;;;;;;;9.04;100.00;101083.50;5051947;28;20074;-81
2022/12/24 09:18:20;;;;;;;26.13;6.88;;;;;;;9.06;100.00;101084.13;5052320;28;20028;-81
2022/12/24 09:20:45;;;;;;;29.58;8.77;;;;;;;9.10;100.00;101076.63;5041745;28;20446;-82
2022/12/24 09:23:11;;;;;;;21.05;5.43;;;;;;;9.20;100.00;101086.00;5059799;28;20031;-80
2022/12/24 09:25:41;;;;;;;23.30;6.90;;;;;;;9.26;100.00;101095.09;5042465;28;20017;-81
2022/12/24 09:28:06;;;;;;;27.08;6.22;;;;;;;9.33;100.00;101101.34;5039990;28;20119;-82
2022/12/24 09:30:31;;;;;;;23.58;9.35;;;;;;;9.50;100.00;101109.97;5053688;28;20128;-82
2022/12/24 09:32:57;;;;;;;19.60;5.10;;;;;;;9.69;100.00;101121.91;5053867;28;20450;-81
2022/12/24 09:35:22;;;;;;;15.73;4.95;;;;;;;9.74;100.00;101118.69;5055575;28;20059;-81
2022/12/24 09:38:01;;;;;;;20.30;4.97;;;;;;;9.79;100.00;101121.63;5053817;28;20021;-82
2022/12/24 09:40:39;;;;;;;20.90;5.65;;;;;;;9.75;100.00;101126.53;5050535;28;20431;-81
2022/12/24 09:43:16;;;;;;;19.17;5.80;;;;;;;9.72;100.00;101132.22;5041810;28;20422;-82
2022/12/24 09:45:55;;;;;;;24.92;6.90;;;;;;;9.64;100.00;101130.47;5057207;28;20688;-81
2022/12/24 09:48:28;;;;;;;14.27;5.93;;;;;;;9.67;100.00;101137.28;5055207;28;20047;-81
2022/12/24 09:51:00;;;;;;;27.85;7.05;;;;;;;9.61;100.00;101137.97;5050118;28;20030;-82
2022/12/24 09:53:39;;;;;;;29.77;7.55;;;;;;;9.65;100.00;101134.78;5056230;28;20379;-82
2022/12/24 09:56:16;;;;;;;25.92;7.15;;;;;;;9.70;100.00;101133.41;5053881;28;20498;-81
2022/12/24 09:58:50;;;;;;;25.55;6.50;;;;;;;9.70;100.00;101128.91;5060709;28;20040;-82
2022/12/24 10:01:16;;;;;;;27.20;7.18;;;;;;;9.75;100.00;101147.81;5057710;28;20080;-81
2022/12/24 10:03:43;;;;;;;20.58;6.20;;;;;;;9.81;100.00;101143.59;5055057;28;20114;-81
2022/12/24 10:06:19;;;;;;;25.80;6.75;;;;;;;9.84;100.00;101149.38;5057634;28;20039;-81
2022/12/24 10:09:00;;;;;;;24.48;4.82;;;;;;;9.94;100.00;101154.44;5055452;28;20040;-81
2022/12/24 10:11:35;;;;;;;16.15;5.10;;;;;;;9.98;100.00;101155.72;5050204;28;20036;-81
2022/12/24 10:14:09;;;;;;;20.45;6.88;;;;;;;10.00;100.00;101161.69;5053914;28;20412;-81
2022/12/24 10:16:49;;;;;;;26.63;9.45;;;;;;;10.02;100.00;101153.50;5058520;28;20048;-82
2022/12/24 10:19:14;;;;;;;19.45;6.20;;;;;;;10.02;100.00;101161.50;5050531;28;20097;-82
2022/12/24 10:21:58;;;;;;;22.50;6.45;;;;;;;10.12;100.00;101158.56;5039332;28;20028;-80
2022/12/24 10:24:33;;;;;;;23.35;6.68;;;;;;;10.21;100.00;101149.44;5055631;28;20021;-81
2022/12/24 10:27:05;;;;;;;23.15;7.35;;;;;;;10.20;100.00;101148.59;5039239;28;20021;-81
2022/12/24 10:29:38;;;;;;;18.13;5.63;;;;;;;10.20;100.00;101145.94;5040035;28;20108;-82
2022/12/24 10:32:06;;;;;;;22.30;5.93;;;;;;;10.20;100.00;101145.94;5053657;28;20085;-81
2022/12/24 10:34:38;;;;;;;24.42;6.28;;;;;;;10.16;100.00;101139.31;5041527;28;20472;-82
2022/12/24 10:37:04;;;;;;;20.55;7.00;;;;;;;10.19;100.00;101143.44;5039604;28;20025;-81
2022/12/24 10:39:30;;;;;;;20.95;5.45;;;;;;;10.20;100.00;101145.94;5059045;28;20058;-81
2022/12/24 10:41:58;;;;;;;20.30;6.88;;;;;;;10.06;100.00;101136.97;5045911;28;20029;-81
2022/12/24 10:44:27;;;;;;;25.00;6.78;;;;;;;9.99;100.00;101160.03;5052137;28;20380;-81
2022/12/24 10:46:53;;;;;;;25.73;7.53;;;;;;;9.91;100.00;101162.78;5059813;28;20032;-81
2022/12/24 10:49:42;;;;;;;27.25;8.60;;;;;;;9.90;100.00;101153.13;5057978;28;20037;-81
2022/12/24 10:52:12;;;;;;;25.98;7.18;;;;;;;10.02;100.00;101158.84;5059551;28;20108;-82
2022/12/24 10:55:10;;;;;;;24.35;6.13;;;;;;;10.10;100.00;101156.88;5059233;28;20063;-81
2022/12/24 10:57:36;;;;;;;24.83;7.28;;;;;;;10.20;100.00;101158.44;5060855;28;20540;-82
2022/12/24 11:00:05;;;;;;;25.48;7.55;;;;;;;10.23;100.00;101164.22;5058987;28;20103;-82
2022/12/24 11:02:36;;;;;;;35.28;8.90;;;;;;;10.31;100.00;101164.13;5059356;28;20082;-82
2022/12/24 11:05:26;;;;;;;21.98;7.93;;;;;;;10.45;100.00;101169.63;5060001;28;20033;-82
2022/12/24 11:08:03;;;;;;;22.17;6.95;;;;;;;10.44;100.00;101168.81;5060371;28;20033;-82
2022/12/24 11:10:30;;;;;;;22.23;6.78;;;;;;;10.41;100.00;101177.19;5043255;28;20032;-83
2022/12/24 11:12:55;;;;;;;35.95;8.77;;;;;;;10.36;100.00;101179.59;5035032;28;20399;-79
2022/12/24 11:15:36;;;;;;;19.63;5.22;;;;;;;10.38;100.00;101168.75;5052791;28;20025;-78
2022/12/24 11:18:13;;;;;;;21.52;6.72;;;;;;;10.38;100.00;101179.41;5049293;28;20074;-81
2022/12/24 11:20:39;;;;;;;23.08;7.60;;;;;;;10.40;100.00;101177.34;5051272;28;20028;-79
2022/12/24 11:23:05;;;;;;;26.08;8.10;;;;;;;10.42;100.00;101178.81;5051480;28;20060;-78
2022/12/24 11:25:33;;;;;;;23.58;6.57;;;;;;;10.46;100.00;101177.44;5050237;28;20036;-78
2022/12/24 11:28:26;;;;;;;21.45;5.90;;;;;;;10.50;100.00;101173.38;5050862;28;20021;-81